DNO537 LEVC-LEAM
Flight info
| Callsign | DNO537 |
|---|---|
| Flight time | 0h 38m |
| Altitude | 21000 |
| Route | NARGO DCT RESTU DCT DOSEK |
| Aircraft | B738/M-SDE2E3FGHIRWXY/LB1 |
Departure
| Time | 2026-04-15 20:54 |
|---|---|
| Airport | Valencia Airport (LEVC) |
Arrival
| Time | 2026-04-15 21:32 |
|---|---|
| Airport | Almería Airport (LEAM) |
| Time | Latitude | Longitude | Altitude | Speed | Heading |
|---|---|---|---|---|---|
| 2026-04-15 18:55 | 39.49049 | -0.47380 | 193 ft | 0 kts | 20° |
| 2026-04-15 19:12 | 39.49035 | -0.47388 | 208 ft | 4 kts | 21° |
| 2026-04-15 19:12 | 39.49011 | -0.47400 | 199 ft | 4 kts | 18° |
| 2026-04-15 19:12 | 39.48985 | -0.47405 | 193 ft | 4 kts | 346° |
| 2026-04-15 19:12 | 39.48965 | -0.47390 | 197 ft | 3 kts | 301° |
| 2026-04-15 19:13 | 39.48962 | -0.47385 | 206 ft | 3 kts | 298° |
| 2026-04-15 19:23 | 39.48971 | -0.47407 | 204 ft | 8 kts | 298° |
| 2026-04-15 19:23 | 39.49016 | -0.47515 | 198 ft | 17 kts | 298° |
| 2026-04-15 19:24 | 39.49044 | -0.47586 | 204 ft | 3 kts | 295° |
| 2026-04-15 19:24 | 39.49052 | -0.47608 | 203 ft | 0 kts | 294° |
| 2026-04-15 19:25 | 39.49052 | -0.47609 | 202 ft | 0 kts | 294° |
| 2026-04-15 19:25 | 39.49054 | -0.47614 | 207 ft | 0 kts | 294° |
| 2026-04-15 19:27 | 39.49059 | -0.47626 | 203 ft | 1 kts | 294° |
| 2026-04-15 19:27 | 39.49059 | -0.47628 | 202 ft | 0 kts | 294° |
| 2026-04-15 19:28 | 39.49060 | -0.47632 | 201 ft | 0 kts | 293° |
| 2026-04-15 19:28 | 39.49061 | -0.47633 | 200 ft | 0 kts | 293° |
| 2026-04-15 19:29 | 39.49061 | -0.47635 | 201 ft | 3 kts | 293° |
| 2026-04-15 19:29 | 39.49070 | -0.47660 | 205 ft | 3 kts | 292° |
| 2026-04-15 19:29 | 39.49077 | -0.47683 | 200 ft | 0 kts | 292° |
| 2026-04-15 19:30 | 39.49079 | -0.47691 | 205 ft | 0 kts | 292° |
| 2026-04-15 19:31 | 39.49080 | -0.47692 | 204 ft | 1 kts | 291° |
| 2026-04-15 19:31 | 39.49084 | -0.47706 | 201 ft | 2 kts | 291° |
| 2026-04-15 19:31 | 39.49085 | -0.47710 | 199 ft | 0 kts | 291° |
| 2026-04-15 19:32 | 39.49087 | -0.47717 | 199 ft | 0 kts | 291° |
| 2026-04-15 19:32 | 39.49089 | -0.47724 | 199 ft | 0 kts | 291° |
| 2026-04-15 19:34 | 39.49090 | -0.47725 | 199 ft | 2 kts | 291° |
| 2026-04-15 19:34 | 39.49091 | -0.47728 | 199 ft | 0 kts | 291° |
| 2026-04-15 19:36 | 39.49093 | -0.47733 | 194 ft | 2 kts | 296° |
| 2026-04-15 19:37 | 39.49099 | -0.47741 | 188 ft | 0 kts | 337° |
| 2026-04-15 19:37 | 39.49121 | -0.47736 | 199 ft | 0 kts | 7° |
| 2026-04-15 19:37 | 39.49122 | -0.47735 | 199 ft | 0 kts | 10° |
| 2026-04-15 19:38 | 39.49123 | -0.47734 | 199 ft | 0 kts | 20° |
| 2026-04-15 19:38 | 39.49138 | -0.47725 | 208 ft | 9 kts | 24° |
| 2026-04-15 19:39 | 39.49148 | -0.47718 | 198 ft | 0 kts | 29° |
| 2026-04-15 19:43 | 39.49190 | -0.47676 | 196 ft | 12 kts | 61° |
| 2026-04-15 19:44 | 39.49167 | -0.47624 | 200 ft | 0 kts | 144° |
| 2026-04-15 19:45 | 39.49153 | -0.47626 | 197 ft | 7 kts | 194° |
| 2026-04-15 19:45 | 39.49124 | -0.47637 | 201 ft | 0 kts | 208° |
| 2026-04-15 19:46 | 39.49120 | -0.47640 | 208 ft | 0 kts | 212° |
| 2026-04-15 19:47 | 39.49052 | -0.47379 | 208 ft | 0 kts | 20° |
| 2026-04-15 19:49 | 39.49059 | -0.47381 | 203 ft | 6 kts | 351° |
| 2026-04-15 19:50 | 39.49116 | -0.47456 | 197 ft | 21 kts | 11° |
| 2026-04-15 19:50 | 39.49052 | -0.47379 | 229 ft | 0 kts | 20° |
| 2026-04-15 20:45 | 39.49044 | -0.47383 | 210 ft | 4 kts | 21° |
| 2026-04-15 20:45 | 39.49019 | -0.47396 | 204 ft | 3 kts | 21° |
| 2026-04-15 20:46 | 39.48997 | -0.47410 | 202 ft | 4 kts | 46° |
| 2026-04-15 20:46 | 39.48986 | -0.47438 | 197 ft | 4 kts | 95° |
| 2026-04-15 20:46 | 39.48990 | -0.47459 | 208 ft | 3 kts | 114° |
| 2026-04-15 20:46 | 39.48991 | -0.47462 | 208 ft | 2 kts | 114° |
| 2026-04-15 20:49 | 39.48989 | -0.47457 | 195 ft | 2 kts | 114° |
| 2026-04-15 20:49 | 39.48977 | -0.47424 | 194 ft | 10 kts | 115° |
| 2026-04-15 20:49 | 39.48928 | -0.47290 | 202 ft | 22 kts | 117° |
| 2026-04-15 20:50 | 39.48783 | -0.47175 | 185 ft | 29 kts | 148° |
| 2026-04-15 20:50 | 39.48666 | -0.46923 | 179 ft | 36 kts | 118° |
| 2026-04-15 20:50 | 39.48617 | -0.46820 | 176 ft | 0 kts | 125° |
| 2026-04-15 20:52 | 39.48574 | -0.46749 | 175 ft | 16 kts | 136° |
| 2026-04-15 20:52 | 39.48443 | -0.46685 | 177 ft | 20 kts | 185° |
| 2026-04-15 20:53 | 39.48395 | -0.46779 | 180 ft | 18 kts | 298° |
| 2026-04-15 20:53 | 39.48461 | -0.46929 | 180 ft | 5 kts | 295° |
| 2026-04-15 20:53 | 39.48525 | -0.47097 | 184 ft | 54 kts | 296° |
| 2026-04-15 20:53 | 39.48815 | -0.47854 | 205 ft | 131 kts | 296° |
| 2026-04-15 20:54 | 39.49294 | -0.49160 | 397 ft | 178 kts | 295° |
| 2026-04-15 20:54 | 39.49785 | -0.50542 | 1451 ft | 172 kts | 298° |
| 2026-04-15 20:54 | 39.50368 | -0.51979 | 2087 ft | 194 kts | 298° |
| 2026-04-15 20:54 | 39.51070 | -0.53643 | 2350 ft | 224 kts | 298° |
| 2026-04-15 20:55 | 39.51843 | -0.55504 | 2637 ft | 243 kts | 298° |
| 2026-04-15 20:55 | 39.52642 | -0.57461 | 3192 ft | 248 kts | 297° |
| 2026-04-15 20:55 | 39.53149 | -0.59572 | 3808 ft | 248 kts | 268° |
| 2026-04-15 20:55 | 39.52592 | -0.61625 | 4470 ft | 245 kts | 232° |
| 2026-04-15 20:56 | 39.51238 | -0.62957 | 5057 ft | 250 kts | 202° |
| 2026-04-15 20:56 | 39.49527 | -0.63541 | 5483 ft | 264 kts | 188° |
| 2026-04-15 20:56 | 39.47625 | -0.63512 | 5902 ft | 281 kts | 172° |
| 2026-04-15 20:56 | 39.45714 | -0.62987 | 6626 ft | 287 kts | 164° |
| 2026-04-15 20:57 | 39.43820 | -0.62115 | 7380 ft | 290 kts | 155° |
| 2026-04-15 20:57 | 39.42049 | -0.60843 | 8165 ft | 292 kts | 144° |
| 2026-04-15 20:57 | 39.40448 | -0.59208 | 8932 ft | 295 kts | 136° |
| 2026-04-15 20:57 | 39.38812 | -0.57573 | 9646 ft | 302 kts | 150° |
| 2026-04-15 20:58 | 39.36847 | -0.56602 | 9975 ft | 304 kts | 169° |
| 2026-04-15 20:58 | 39.34757 | -0.56493 | 10003 ft | 301 kts | 189° |
| 2026-04-15 20:58 | 39.32729 | -0.57194 | 10004 ft | 304 kts | 204° |
| 2026-04-15 20:58 | 39.30846 | -0.58413 | 10006 ft | 302 kts | 211° |
| 2026-04-15 20:59 | 39.29019 | -0.59754 | 9993 ft | 303 kts | 212° |
| 2026-04-15 20:59 | 39.27194 | -0.61124 | 10015 ft | 302 kts | 212° |
| 2026-04-15 20:59 | 39.25375 | -0.62489 | 10008 ft | 303 kts | 212° |
| 2026-04-15 20:59 | 39.23551 | -0.63847 | 10007 ft | 303 kts | 212° |
| 2026-04-15 21:00 | 39.21727 | -0.65197 | 10010 ft | 303 kts | 211° |
| 2026-04-15 21:00 | 39.19896 | -0.66544 | 9995 ft | 303 kts | 211° |
| 2026-04-15 21:00 | 39.18062 | -0.67889 | 10128 ft | 306 kts | 211° |
| 2026-04-15 21:00 | 39.16173 | -0.69270 | 10476 ft | 323 kts | 211° |
| 2026-04-15 21:01 | 39.14148 | -0.70750 | 10645 ft | 346 kts | 211° |
| 2026-04-15 21:01 | 39.11996 | -0.72318 | 10990 ft | 361 kts | 211° |
| 2026-04-15 21:01 | 39.09783 | -0.73927 | 11530 ft | 370 kts | 211° |
| 2026-04-15 21:01 | 39.07525 | -0.75564 | 12194 ft | 374 kts | 211° |
| 2026-04-15 21:02 | 39.05247 | -0.77215 | 12902 ft | 377 kts | 210° |
| 2026-04-15 21:02 | 39.03729 | -0.78315 | 13411 ft | 378 kts | 211° |
| 2026-04-15 21:02 | 39.00641 | -0.80550 | 14332 ft | 384 kts | 211° |
| 2026-04-15 21:02 | 38.98296 | -0.82247 | 14967 ft | 388 kts | 211° |
| 2026-04-15 21:03 | 38.96740 | -0.83372 | 15423 ft | 390 kts | 211° |
| 2026-04-15 21:03 | 38.94361 | -0.85091 | 16119 ft | 394 kts | 211° |
| 2026-04-15 21:03 | 38.91181 | -0.87388 | 17006 ft | 398 kts | 211° |
| 2026-04-15 21:03 | 38.89545 | -0.88569 | 17439 ft | 401 kts | 211° |
| 2026-04-15 21:04 | 38.86294 | -0.90913 | 18265 ft | 408 kts | 211° |
| 2026-04-15 21:04 | 38.84618 | -0.92121 | 18665 ft | 411 kts | 212° |
| 2026-04-15 21:04 | 38.81304 | -0.94506 | 19475 ft | 413 kts | 212° |
| 2026-04-15 21:04 | 38.79611 | -0.95724 | 19921 ft | 413 kts | 212° |
| 2026-04-15 21:05 | 38.77100 | -0.97529 | 20550 ft | 415 kts | 212° |
| 2026-04-15 21:05 | 38.74607 | -0.99319 | 21145 ft | 417 kts | 212° |
| 2026-04-15 21:05 | 38.72063 | -1.01123 | 21716 ft | 419 kts | 212° |
| 2026-04-15 21:05 | 38.69493 | -1.02887 | 22415 ft | 418 kts | 211° |
| 2026-04-15 21:06 | 38.66936 | -1.04616 | 23277 ft | 413 kts | 211° |
| 2026-04-15 21:06 | 38.64400 | -1.06325 | 23897 ft | 413 kts | 212° |
| 2026-04-15 21:06 | 38.61855 | -1.08042 | 24174 ft | 412 kts | 212° |
| 2026-04-15 21:06 | 38.59320 | -1.09757 | 24191 ft | 412 kts | 212° |
| 2026-04-15 21:07 | 38.56799 | -1.11463 | 24198 ft | 410 kts | 212° |
| 2026-04-15 21:07 | 38.54282 | -1.13168 | 24209 ft | 409 kts | 212° |
| 2026-04-15 21:07 | 38.51768 | -1.14872 | 24208 ft | 409 kts | 212° |
| 2026-04-15 21:07 | 38.49250 | -1.16578 | 24214 ft | 409 kts | 212° |
| 2026-04-15 21:08 | 38.46736 | -1.18280 | 24205 ft | 410 kts | 212° |
| 2026-04-15 21:08 | 38.44218 | -1.19984 | 24204 ft | 410 kts | 212° |
| 2026-04-15 21:08 | 38.41701 | -1.21685 | 24202 ft | 410 kts | 212° |
| 2026-04-15 21:08 | 38.39182 | -1.23386 | 24203 ft | 409 kts | 212° |
| 2026-04-15 21:09 | 38.36664 | -1.25084 | 24212 ft | 409 kts | 212° |
| 2026-04-15 21:09 | 38.34153 | -1.26777 | 24214 ft | 409 kts | 212° |
| 2026-04-15 21:09 | 38.31636 | -1.28473 | 24209 ft | 409 kts | 212° |
| 2026-04-15 21:09 | 38.29119 | -1.30167 | 24205 ft | 409 kts | 212° |
| 2026-04-15 21:10 | 38.26609 | -1.31855 | 24202 ft | 409 kts | 212° |
| 2026-04-15 21:10 | 38.24114 | -1.33530 | 24188 ft | 399 kts | 212° |
| 2026-04-15 21:10 | 38.21699 | -1.35146 | 24183 ft | 384 kts | 212° |
| 2026-04-15 21:10 | 38.19359 | -1.36713 | 24186 ft | 379 kts | 212° |
| 2026-04-15 21:11 | 38.17027 | -1.38279 | 24190 ft | 379 kts | 212° |
| 2026-04-15 21:11 | 38.14690 | -1.39849 | 24200 ft | 381 kts | 212° |
| 2026-04-15 21:11 | 38.12343 | -1.41423 | 24194 ft | 382 kts | 212° |
| 2026-04-15 21:11 | 38.09990 | -1.42999 | 24190 ft | 382 kts | 212° |
| 2026-04-15 21:12 | 38.07636 | -1.44573 | 24197 ft | 382 kts | 212° |
| 2026-04-15 21:12 | 38.05285 | -1.46144 | 24188 ft | 380 kts | 212° |
| 2026-04-15 21:12 | 38.02974 | -1.47685 | 23973 ft | 374 kts | 212° |
| 2026-04-15 21:12 | 38.00672 | -1.49220 | 23553 ft | 373 kts | 212° |
| 2026-04-15 21:13 | 37.98373 | -1.50755 | 22996 ft | 375 kts | 212° |
| 2026-04-15 21:13 | 37.96063 | -1.52296 | 22506 ft | 375 kts | 211° |
| 2026-04-15 21:13 | 37.93763 | -1.53828 | 22098 ft | 372 kts | 211° |
| 2026-04-15 21:13 | 37.91483 | -1.55343 | 21728 ft | 370 kts | 211° |
| 2026-04-15 21:14 | 37.89205 | -1.56847 | 21320 ft | 368 kts | 210° |
| 2026-04-15 21:14 | 37.86929 | -1.58329 | 20891 ft | 367 kts | 210° |
| 2026-04-15 21:14 | 37.84661 | -1.59797 | 20485 ft | 366 kts | 210° |
| 2026-04-15 21:14 | 37.82395 | -1.61263 | 20080 ft | 364 kts | 210° |
| 2026-04-15 21:15 | 37.80143 | -1.62719 | 19694 ft | 363 kts | 210° |
| 2026-04-15 21:15 | 37.77902 | -1.64170 | 19328 ft | 361 kts | 210° |
| 2026-04-15 21:15 | 37.75696 | -1.65595 | 19053 ft | 350 kts | 210° |
| 2026-04-15 21:15 | 37.73516 | -1.67005 | 18294 ft | 355 kts | 210° |
| 2026-04-15 21:16 | 37.71297 | -1.68443 | 17700 ft | 360 kts | 209° |
| 2026-04-15 21:16 | 37.69101 | -1.69863 | 17263 ft | 352 kts | 209° |
| 2026-04-15 21:16 | 37.66934 | -1.71262 | 16784 ft | 348 kts | 209° |
| 2026-04-15 21:16 | 37.64814 | -1.72629 | 16661 ft | 334 kts | 209° |
| 2026-04-15 21:17 | 37.62739 | -1.73967 | 16114 ft | 331 kts | 209° |
| 2026-04-15 21:17 | 37.60701 | -1.75281 | 15700 ft | 327 kts | 209° |
| 2026-04-15 21:17 | 37.58691 | -1.76577 | 15376 ft | 322 kts | 209° |
| 2026-04-15 21:17 | 37.56703 | -1.77858 | 15049 ft | 322 kts | 208° |
| 2026-04-15 21:18 | 37.54676 | -1.79165 | 14711 ft | 334 kts | 208° |
| 2026-04-15 21:18 | 37.52566 | -1.80525 | 14357 ft | 344 kts | 208° |
| 2026-04-15 21:18 | 37.50428 | -1.81900 | 13978 ft | 344 kts | 208° |
| 2026-04-15 21:18 | 37.48303 | -1.83265 | 13600 ft | 343 kts | 208° |
| 2026-04-15 21:19 | 37.46184 | -1.84624 | 13235 ft | 341 kts | 208° |
| 2026-04-15 21:19 | 37.44076 | -1.85976 | 12877 ft | 338 kts | 208° |
| 2026-04-15 21:19 | 37.41985 | -1.87317 | 12526 ft | 336 kts | 208° |
| 2026-04-15 21:19 | 37.39909 | -1.88647 | 12171 ft | 334 kts | 208° |
| 2026-04-15 21:20 | 37.37845 | -1.89969 | 11840 ft | 332 kts | 208° |
| 2026-04-15 21:20 | 37.35794 | -1.91282 | 11491 ft | 330 kts | 207° |
| 2026-04-15 21:20 | 37.33757 | -1.92585 | 11157 ft | 327 kts | 207° |
| 2026-04-15 21:20 | 37.31738 | -1.93876 | 10840 ft | 325 kts | 207° |
| 2026-04-15 21:21 | 37.29730 | -1.95160 | 10582 ft | 320 kts | 207° |
| 2026-04-15 21:21 | 37.27773 | -1.96409 | 10448 ft | 312 kts | 207° |
| 2026-04-15 21:21 | 37.25891 | -1.97610 | 10313 ft | 304 kts | 207° |
| 2026-04-15 21:21 | 37.24027 | -1.98803 | 10132 ft | 299 kts | 208° |
| 2026-04-15 21:22 | 37.22195 | -2.00021 | 9833 ft | 297 kts | 208° |
| 2026-04-15 21:22 | 37.20379 | -2.01245 | 9537 ft | 295 kts | 208° |
| 2026-04-15 21:22 | 37.18580 | -2.02459 | 9257 ft | 293 kts | 208° |
| 2026-04-15 21:22 | 37.16790 | -2.03664 | 8975 ft | 291 kts | 208° |
| 2026-04-15 21:23 | 37.15013 | -2.04858 | 8700 ft | 289 kts | 208° |
| 2026-04-15 21:23 | 37.13247 | -2.06042 | 8428 ft | 286 kts | 208° |
| 2026-04-15 21:23 | 37.11497 | -2.07214 | 8152 ft | 284 kts | 208° |
| 2026-04-15 21:23 | 37.09755 | -2.08378 | 7894 ft | 282 kts | 208° |
| 2026-04-15 21:24 | 37.08029 | -2.09532 | 7619 ft | 281 kts | 208° |
| 2026-04-15 21:24 | 37.06319 | -2.10672 | 7341 ft | 275 kts | 208° |
| 2026-04-15 21:24 | 37.04652 | -2.11781 | 7084 ft | 269 kts | 208° |
| 2026-04-15 21:24 | 37.02954 | -2.12760 | 6820 ft | 270 kts | 192° |
| 2026-04-15 21:25 | 37.01111 | -2.12651 | 6579 ft | 266 kts | 158° |
| 2026-04-15 21:25 | 36.99628 | -2.11470 | 6497 ft | 243 kts | 133° |
| 2026-04-15 21:25 | 36.98593 | -2.09913 | 6356 ft | 224 kts | 128° |
| 2026-04-15 21:25 | 36.97540 | -2.08444 | 5793 ft | 229 kts | 133° |
| 2026-04-15 21:26 | 36.96411 | -2.07080 | 5457 ft | 222 kts | 137° |
| 2026-04-15 21:26 | 36.95238 | -2.05890 | 5210 ft | 212 kts | 144° |
| 2026-04-15 21:26 | 36.93935 | -2.05149 | 4956 ft | 206 kts | 177° |
| 2026-04-15 21:26 | 36.92620 | -2.05674 | 4814 ft | 203 kts | 224° |
| 2026-04-15 21:27 | 36.91882 | -2.07159 | 4652 ft | 205 kts | 245° |
| 2026-04-15 21:27 | 36.91351 | -2.08789 | 4396 ft | 201 kts | 250° |
| 2026-04-15 21:27 | 36.90929 | -2.10446 | 4128 ft | 199 kts | 252° |
| 2026-04-15 21:27 | 36.90528 | -2.12093 | 3865 ft | 198 kts | 252° |
| 2026-04-15 21:28 | 36.90125 | -2.13728 | 3603 ft | 196 kts | 252° |
| 2026-04-15 21:28 | 36.89725 | -2.15348 | 3350 ft | 194 kts | 252° |
| 2026-04-15 21:28 | 36.89329 | -2.16952 | 3092 ft | 192 kts | 252° |
| 2026-04-15 21:28 | 36.88938 | -2.18538 | 2845 ft | 189 kts | 252° |
| 2026-04-15 21:29 | 36.88559 | -2.20073 | 2619 ft | 188 kts | 253° |
| 2026-04-15 21:29 | 36.88172 | -2.21646 | 2347 ft | 182 kts | 253° |
| 2026-04-15 21:29 | 36.87816 | -2.23092 | 2102 ft | 171 kts | 253° |
| 2026-04-15 21:29 | 36.87469 | -2.24498 | 1875 ft | 167 kts | 253° |
| 2026-04-15 21:30 | 36.87130 | -2.25876 | 1666 ft | 169 kts | 253° |
| 2026-04-15 21:30 | 36.86781 | -2.27297 | 1435 ft | 170 kts | 253° |
| 2026-04-15 21:30 | 36.86431 | -2.28720 | 1204 ft | 172 kts | 253° |
| 2026-04-15 21:30 | 36.86082 | -2.30140 | 986 ft | 176 kts | 253° |
| 2026-04-15 21:31 | 36.85357 | -2.33086 | 504 ft | 177 kts | 253° |
| 2026-04-15 21:31 | 36.84998 | -2.34550 | 263 ft | 175 kts | 253° |
| 2026-04-15 21:32 | 36.84322 | -2.37294 | 41 ft | 134 kts | 253° |
| 2026-04-15 21:32 | 36.84094 | -2.38232 | 28 ft | 91 kts | 253° |
| 2026-04-15 21:32 | 36.84010 | -2.38584 | 23 ft | 32 kts | 262° |
| 2026-04-15 21:32 | 36.84029 | -2.38744 | 25 ft | 11 kts | 301° |
| 2026-04-15 21:33 | 36.84095 | -2.38783 | 22 ft | 11 kts | 6° |
| 2026-04-15 21:33 | 36.84149 | -2.38724 | 24 ft | 11 kts | 71° |
| 2026-04-15 21:33 | 36.84170 | -2.38636 | 26 ft | 10 kts | 72° |
| 2026-04-15 21:33 | 36.84192 | -2.38551 | 25 ft | 10 kts | 72° |
| 2026-04-15 21:34 | 36.84212 | -2.38469 | 26 ft | 10 kts | 73° |
| 2026-04-15 21:34 | 36.84231 | -2.38388 | 27 ft | 10 kts | 73° |
| 2026-04-15 21:34 | 36.84250 | -2.38310 | 28 ft | 9 kts | 73° |
| 2026-04-15 21:34 | 36.84269 | -2.38234 | 29 ft | 9 kts | 73° |
| 2026-04-15 21:35 | 36.84287 | -2.38159 | 30 ft | 9 kts | 73° |
| 2026-04-15 21:35 | 36.84304 | -2.38087 | 31 ft | 9 kts | 73° |
| 2026-04-15 21:35 | 36.84321 | -2.38017 | 32 ft | 8 kts | 73° |
| 2026-04-15 21:35 | 36.84339 | -2.37950 | 32 ft | 8 kts | 64° |
| 2026-04-15 21:36 | 36.84380 | -2.37911 | 34 ft | 8 kts | 6° |
| 2026-04-15 21:36 | 36.84432 | -2.37917 | 34 ft | 7 kts | 353° |
| 2026-04-15 21:36 | 36.84475 | -2.37892 | 34 ft | 7 kts | 60° |
| 2026-04-15 21:36 | 36.84493 | -2.37835 | 35 ft | 7 kts | 71° |
| 2026-04-15 21:37 | 36.84507 | -2.37779 | 36 ft | 7 kts | 73° |
| 2026-04-15 21:37 | 36.84520 | -2.37723 | 36 ft | 7 kts | 73° |
| 2026-04-15 21:37 | 36.84532 | -2.37669 | 37 ft | 6 kts | 75° |
| 2026-04-15 21:37 | 36.84545 | -2.37616 | 37 ft | 6 kts | 72° |
| 2026-04-15 21:38 | 36.84551 | -2.37564 | 38 ft | 6 kts | 99° |
| 2026-04-15 21:38 | 36.84528 | -2.37522 | 38 ft | 6 kts | 149° |
| 2026-04-15 21:38 | 36.84489 | -2.37506 | 39 ft | 6 kts | 172° |
| 2026-04-15 21:38 | 36.84452 | -2.37518 | 36 ft | 6 kts | 224° |
| 2026-04-15 21:39 | 36.84441 | -2.37566 | 38 ft | 6 kts | 264° |
| 2026-04-15 21:39 | 36.84437 | -2.37616 | 36 ft | 6 kts | 265° |
| 2026-04-15 21:39 | 36.84434 | -2.37666 | 37 ft | 6 kts | 266° |
| 2026-04-15 21:39 | 36.84455 | -2.37696 | 37 ft | 6 kts | 11° |
| 2026-04-15 21:40 | 36.84485 | -2.37665 | 37 ft | 6 kts | 39° |
| 2026-04-15 21:40 | 36.84517 | -2.37640 | 37 ft | 5 kts | 28° |
| 2026-04-15 21:40 | 36.84549 | -2.37608 | 38 ft | 7 kts | 62° |
| 2026-04-15 21:40 | 36.84542 | -2.37537 | 39 ft | 10 kts | 117° |
| 2026-04-15 21:41 | 36.84539 | -2.37446 | 37 ft | 12 kts | 76° |
| 2026-04-15 21:41 | 36.84561 | -2.37360 | 41 ft | 4 kts | 54° |
| 2026-04-15 21:41 | 36.84592 | -2.37349 | 41 ft | 6 kts | 355° |
| 2026-04-15 21:41 | 36.84617 | -2.37356 | 41 ft | 2 kts | 342° |
| 2026-04-15 21:42 | 36.84627 | -2.37360 | 38 ft | 0 kts | 339° |